createdAt,value
2019-04-27T15:01:48.811Z,16.15
2019-04-27T15:04:17.952Z,7.30
2019-04-27T15:06:46.718Z,12.10
2019-04-27T15:09:18.022Z,10.03
2019-04-27T15:11:56.478Z,13.60
2019-04-27T15:14:25.530Z,18.42
2019-04-27T15:17:06.770Z,17.82
2019-04-27T15:19:36.216Z,13.65
2019-04-27T15:22:08.393Z,17.20
2019-04-27T15:24:37.210Z,12.10
2019-04-27T15:27:07.424Z,24.10
2019-04-27T15:29:36.340Z,22.82
2019-04-27T15:32:12.874Z,20.82
2019-04-27T15:35:05.008Z,17.65
2019-04-27T15:37:56.949Z,22.65
2019-04-27T15:40:44.002Z,21.82
2019-04-27T15:43:13.005Z,31.42
2019-04-27T15:45:41.860Z,20.55
2019-04-27T15:48:10.599Z,20.37
2019-04-27T15:50:39.479Z,28.67
2019-04-27T15:53:12.314Z,25.62
2019-04-27T15:55:39.622Z,25.27
2019-04-27T15:58:09.799Z,17.23
2019-04-27T16:00:38.716Z,22.90
2019-04-27T16:03:08.035Z,34.98
2019-04-27T16:05:38.085Z,21.97
2019-04-27T16:08:12.869Z,23.40
2019-04-27T16:10:40.296Z,22.87
2019-04-27T16:13:13.420Z,14.38
2019-04-27T16:15:39.799Z,15.53
2019-04-27T16:18:08.924Z,16.97
2019-04-27T16:20:38.106Z,26.30
2019-04-27T16:23:08.757Z,12.20
2019-04-27T16:25:47.441Z,21.02
2019-04-27T16:28:09.663Z,29.45
2019-04-27T16:30:39.135Z,16.17
2019-04-27T16:33:08.875Z,30.52
2019-04-27T16:35:38.719Z,25.08
2019-04-27T16:38:09.654Z,30.88
2019-04-27T16:40:38.993Z,21.27
2019-04-27T16:43:09.044Z,36.25
2019-04-27T16:45:38.806Z,23.98
2019-04-27T16:48:09.152Z,32.00
2019-04-27T16:50:39.058Z,26.82
2019-04-27T16:53:10.730Z,29.63
2019-04-27T16:55:38.860Z,26.85
2019-04-27T16:58:11.112Z,25.08
2019-04-27T17:00:40.698Z,33.25
2019-04-27T17:03:09.392Z,19.87
2019-04-27T17:05:38.237Z,11.57
2019-04-27T17:08:14.243Z,14.25
2019-04-27T17:10:38.972Z,24.67
2019-04-27T17:13:13.384Z,19.17
2019-04-27T17:15:55.057Z,20.82
2019-04-27T17:18:43.801Z,17.37
2019-04-27T17:21:19.032Z,9.95
2019-04-27T17:23:43.295Z,15.80
2019-04-27T17:26:21.073Z,19.35
2019-04-27T17:28:50.886Z,12.33
2019-04-27T17:31:21.524Z,10.20
2019-04-27T17:33:52.008Z,13.98
2019-04-27T17:36:20.819Z,9.78
2019-04-27T17:38:51.139Z,25.43
2019-04-27T17:41:20.308Z,9.45
2019-04-27T17:43:49.120Z,17.67
2019-04-27T17:46:17.916Z,18.48
2019-04-27T17:48:48.455Z,11.97
2019-04-27T17:51:17.234Z,14.80
2019-04-27T17:53:46.081Z,19.25
2019-04-27T17:56:18.346Z,22.37
2019-04-27T17:58:52.389Z,15.58
2019-04-27T18:01:26.517Z,16.80
2019-04-27T18:10:13.428Z,12.55
2019-04-27T18:12:39.955Z,14.40
2019-04-27T18:15:10.429Z,28.05
2019-04-27T18:17:47.796Z,18.80
2019-04-27T18:20:13.284Z,26.57
2019-04-27T18:22:43.711Z,34.30
2019-04-27T18:25:12.729Z,49.05
2019-04-27T18:27:46.090Z,44.77
2019-04-27T18:30:22.444Z,34.75
2019-04-27T18:32:51.162Z,52.38
2019-04-27T18:35:26.044Z,45.05
2019-04-27T18:37:53.629Z,44.85
2019-04-27T18:40:24.232Z,37.13
2019-04-27T18:42:51.834Z,46.70
2019-04-27T18:45:20.646Z,39.92
2019-04-27T18:47:52.014Z,34.20
2019-04-27T18:50:31.483Z,32.93
2019-04-27T18:53:04.793Z,24.12
2019-04-27T18:55:33.613Z,41.68
2019-04-27T18:58:02.543Z,47.75
2019-04-27T19:00:31.373Z,38.67
2019-04-27T19:03:00.209Z,35.95
2019-04-27T19:05:39.709Z,52.85
2019-04-27T19:07:59.854Z,50.12
2019-04-27T19:10:28.699Z,35.68
2019-04-27T19:12:58.520Z,38.73
2019-04-27T19:15:28.573Z,62.27
2019-04-27T19:17:58.231Z,30.97
2019-04-27T19:20:28.803Z,38.48
2019-04-27T19:22:59.721Z,42.88
2019-04-27T19:25:29.796Z,30.52
2019-04-27T19:28:00.207Z,38.45
2019-04-27T19:30:30.601Z,21.93
2019-04-27T19:32:59.816Z,34.20
2019-04-27T19:35:28.780Z,31.48
2019-04-27T19:37:58.956Z,33.10
2019-04-27T19:40:29.031Z,46.37
2019-04-27T19:42:58.818Z,42.60
2019-04-27T19:45:29.231Z,57.43
2019-04-27T19:47:58.478Z,38.42
2019-04-27T19:50:28.574Z,37.60
2019-04-27T19:52:58.718Z,41.92
2019-04-27T19:55:28.075Z,58.58
2019-04-27T19:57:57.190Z,36.25
2019-04-27T20:00:29.256Z,39.13
2019-04-27T20:02:59.665Z,41.92
2019-04-27T20:05:31.274Z,40.35
2019-04-27T20:08:01.733Z,38.20
2019-04-27T20:10:34.212Z,34.13
2019-04-27T20:13:01.016Z,36.10
2019-04-27T20:15:29.848Z,38.08
2019-04-27T20:17:58.619Z,31.25
2019-04-27T20:20:27.414Z,19.80
2019-04-27T20:22:56.437Z,22.15
2019-04-27T20:25:25.301Z,23.77
2019-04-27T20:27:54.101Z,25.82
2019-04-27T20:30:22.902Z,36.65
2019-04-27T20:32:51.728Z,23.10
2019-04-27T20:35:22.000Z,32.08
2019-04-27T20:37:51.858Z,32.30
2019-04-27T20:40:21.800Z,36.30
2019-04-27T20:42:51.580Z,33.18
2019-04-27T20:45:20.646Z,45.67
2019-04-27T20:47:52.363Z,48.90
2019-04-27T20:50:19.930Z,60.92
2019-04-27T20:52:50.350Z,71.87
2019-04-27T20:55:19.148Z,72.85
2019-04-27T20:57:58.682Z,58.30
2019-04-27T21:00:21.937Z,58.05
2019-04-27T21:03:01.871Z,57.17
2019-04-27T21:05:35.001Z,105.40
2019-04-27T21:08:14.426Z,63.48
2019-04-27T21:10:43.351Z,59.75
2019-04-27T21:13:12.196Z,57.17
2019-04-27T21:15:41.933Z,43.17
2019-04-27T21:18:11.485Z,44.67
2019-04-27T21:20:41.169Z,35.08
2019-04-27T21:23:11.927Z,53.85
2019-04-27T21:25:42.144Z,39.90
2019-04-27T21:28:16.603Z,48.23
2019-04-27T21:30:42.166Z,37.63
2019-04-27T21:33:11.490Z,53.78
2019-04-27T21:35:40.507Z,38.23
2019-04-27T21:38:11.657Z,31.27
2019-04-27T21:40:40.937Z,37.55
2019-04-27T21:43:11.335Z,41.33
2019-04-27T21:45:41.865Z,23.73
2019-04-27T21:48:11.042Z,40.70
2019-04-27T21:50:41.288Z,18.73
2019-04-27T21:53:23.943Z,26.60
2019-04-27T21:56:03.441Z,33.25
2019-04-27T21:58:33.347Z,46.58
2019-04-27T22:01:04.244Z,25.17
2019-04-27T22:03:33.533Z,22.55
2019-04-27T22:06:02.365Z,17.52
2019-04-27T22:08:31.881Z,19.92
2019-04-27T22:11:01.531Z,15.15
2019-04-27T22:13:31.158Z,25.40
2019-04-27T22:16:00.543Z,16.35
2019-04-27T22:18:31.319Z,23.98
2019-04-27T22:21:01.323Z,28.05
2019-04-27T22:23:46.985Z,24.12
2019-04-27T22:26:15.805Z,19.87
2019-04-27T22:28:49.238Z,22.62
2019-04-27T22:31:15.087Z,29.15
2019-04-27T22:33:43.938Z,26.62
2019-04-27T22:36:12.736Z,16.55
2019-04-27T22:38:41.935Z,28.00
2019-04-27T22:41:21.416Z,30.20
2019-04-27T22:44:04.261Z,23.80
2019-04-27T22:46:34.701Z,26.17
2019-04-27T22:49:03.627Z,22.57
2019-04-27T22:51:32.617Z,23.20
2019-04-27T22:54:01.407Z,9.83
2019-04-27T22:56:32.138Z,13.65
2019-04-27T22:59:11.524Z,21.10
2019-04-27T23:01:53.916Z,15.95
2019-04-27T23:04:27.265Z,16.82
2019-04-27T23:06:56.101Z,15.32
2019-04-27T23:09:24.829Z,12.07
2019-04-27T23:11:54.657Z,12.85
2019-04-27T23:14:23.405Z,7.42
2019-04-27T23:16:53.816Z,11.10
2019-04-27T23:19:22.620Z,11.63
2019-04-27T23:21:53.266Z,13.48
2019-04-27T23:24:22.673Z,8.40
2019-04-27T23:26:51.776Z,14.65
2019-04-27T23:29:21.361Z,18.70
2019-04-27T23:31:52.748Z,15.88
2019-04-27T23:34:22.067Z,23.47
2019-04-27T23:36:50.887Z,9.13
2019-04-27T23:39:19.917Z,18.32
2019-04-27T23:41:48.712Z,18.12
2019-04-27T23:44:17.515Z,19.98
2019-04-27T23:46:46.356Z,14.25
2019-04-27T23:49:15.449Z,13.30
2019-04-27T23:51:52.222Z,16.10
2019-04-27T23:54:21.437Z,11.00
2019-04-27T23:56:51.881Z,16.90
2019-04-27T23:59:25.010Z,17.67
